sensor_id;sensor_type;location;lat;lon;timestamp;P1;durP1;ratioP1;P2;durP2;ratioP2
77123;SDS011;66079;47.646;19.130;2022-12-29T00:01:42;23.88;;;12.73;;
77123;SDS011;66079;47.646;19.130;2022-12-29T00:04:45;25.20;;;12.67;;
77123;SDS011;66079;47.646;19.130;2022-12-29T00:07:47;28.85;;;13.25;;
77123;SDS011;66079;47.646;19.130;2022-12-29T00:10:50;32.63;;;14.63;;
77123;SDS011;66079;47.646;19.130;2022-12-29T00:13:52;30.15;;;15.50;;
77123;SDS011;66079;47.646;19.130;2022-12-29T00:17:14;31.97;;;15.13;;
77123;SDS011;66079;47.646;19.130;2022-12-29T00:20:17;28.80;;;14.90;;
77123;SDS011;66079;47.646;19.130;2022-12-29T00:23:37;29.02;;;14.38;;
77123;SDS011;66079;47.646;19.130;2022-12-29T00:30:23;28.95;;;14.38;;
77123;SDS011;66079;47.646;19.130;2022-12-29T00:33:46;28.85;;;14.35;;
77123;SDS011;66079;47.646;19.130;2022-12-29T00:37:08;29.60;;;14.70;;
77123;SDS011;66079;47.646;19.130;2022-12-29T00:40:10;30.70;;;15.57;;
77123;SDS011;66079;47.646;19.130;2022-12-29T00:43:32;28.08;;;13.50;;
77123;SDS011;66079;47.646;19.130;2022-12-29T00:46:53;25.15;;;13.50;;
77123;SDS011;66079;47.646;19.130;2022-12-29T00:49:55;27.42;;;13.75;;
77123;SDS011;66079;47.646;19.130;2022-12-29T00:52:58;24.23;;;12.88;;
77123;SDS011;66079;47.646;19.130;2022-12-29T00:56:00;31.25;;;14.75;;
77123;SDS011;66079;47.646;19.130;2022-12-29T00:59:03;30.98;;;14.68;;
77123;SDS011;66079;47.646;19.130;2022-12-29T01:02:10;30.87;;;15.57;;
77123;SDS011;66079;47.646;19.130;2022-12-29T01:05:13;33.50;;;15.43;;
77123;SDS011;66079;47.646;19.130;2022-12-29T01:08:15;26.58;;;14.32;;
77123;SDS011;66079;47.646;19.130;2022-12-29T01:11:19;27.00;;;14.07;;
77123;SDS011;66079;47.646;19.130;2022-12-29T01:14:22;27.42;;;13.50;;
77123;SDS011;66079;47.646;19.130;2022-12-29T01:17:25;24.52;;;13.05;;
77123;SDS011;66079;47.646;19.130;2022-12-29T01:20:27;21.25;;;11.32;;
77123;SDS011;66079;47.646;19.130;2022-12-29T01:23:31;25.83;;;12.50;;
77123;SDS011;66079;47.646;19.130;2022-12-29T01:26:34;23.52;;;12.55;;
77123;SDS011;66079;47.646;19.130;2022-12-29T01:29:37;24.20;;;11.45;;
77123;SDS011;66079;47.646;19.130;2022-12-29T01:32:39;24.23;;;11.98;;
77123;SDS011;66079;47.646;19.130;2022-12-29T01:35:42;23.30;;;11.50;;
77123;SDS011;66079;47.646;19.130;2022-12-29T01:38:44;24.48;;;10.93;;
77123;SDS011;66079;47.646;19.130;2022-12-29T01:41:47;23.40;;;11.25;;
77123;SDS011;66079;47.646;19.130;2022-12-29T01:47:57;19.13;;;10.52;;
77123;SDS011;66079;47.646;19.130;2022-12-29T01:51:03;19.55;;;10.75;;
77123;SDS011;66079;47.646;19.130;2022-12-29T01:54:08;18.98;;;10.15;;
77123;SDS011;66079;47.646;19.130;2022-12-29T01:57:16;20.33;;;10.40;;
77123;SDS011;66079;47.646;19.130;2022-12-29T02:00:23;16.50;;;9.63;;
77123;SDS011;66079;47.646;19.130;2022-12-29T02:03:26;22.50;;;10.57;;
77123;SDS011;66079;47.646;19.130;2022-12-29T02:06:38;19.52;;;10.57;;
77123;SDS011;66079;47.646;19.130;2022-12-29T02:09:50;19.92;;;11.00;;
77123;SDS011;66079;47.646;19.130;2022-12-29T02:12:54;20.20;;;11.25;;
77123;SDS011;66079;47.646;19.130;2022-12-29T02:36:31;22.33;;;11.05;;
77123;SDS011;66079;47.646;19.130;2022-12-29T02:39:44;22.33;;;10.77;;
77123;SDS011;66079;47.646;19.130;2022-12-29T02:53:09;19.17;;;9.67;;
77123;SDS011;66079;47.646;19.130;2022-12-29T02:56:15;18.20;;;10.05;;
77123;SDS011;66079;47.646;19.130;2022-12-29T02:59:20;20.63;;;10.02;;
77123;SDS011;66079;47.646;19.130;2022-12-29T03:12:59;19.83;;;10.02;;
77123;SDS011;66079;47.646;19.130;2022-12-29T03:19:31;21.50;;;11.32;;
77123;SDS011;66079;47.646;19.130;2022-12-29T03:22:39;18.42;;;11.18;;
77123;SDS011;66079;47.646;19.130;2022-12-29T03:25:48;20.15;;;10.38;;
77123;SDS011;66079;47.646;19.130;2022-12-29T03:28:56;20.40;;;11.18;;
77123;SDS011;66079;47.646;19.130;2022-12-29T03:32:03;21.70;;;12.18;;
77123;SDS011;66079;47.646;19.130;2022-12-29T03:35:08;25.63;;;12.70;;
77123;SDS011;66079;47.646;19.130;2022-12-29T03:41:27;27.50;;;12.30;;
77123;SDS011;66079;47.646;19.130;2022-12-29T03:44:37;21.75;;;12.25;;
77123;SDS011;66079;47.646;19.130;2022-12-29T03:47:44;22.80;;;11.43;;
77123;SDS011;66079;47.646;19.130;2022-12-29T03:50:47;21.80;;;11.30;;
77123;SDS011;66079;47.646;19.130;2022-12-29T03:53:54;24.20;;;12.30;;
77123;SDS011;66079;47.646;19.130;2022-12-29T03:56:58;23.83;;;12.52;;
77123;SDS011;66079;47.646;19.130;2022-12-29T04:00:19;24.67;;;12.32;;
77123;SDS011;66079;47.646;19.130;2022-12-29T04:03:24;25.45;;;12.27;;
77123;SDS011;66079;47.646;19.130;2022-12-29T04:06:26;24.30;;;13.00;;
77123;SDS011;66079;47.646;19.130;2022-12-29T04:09:35;25.13;;;12.57;;
77123;SDS011;66079;47.646;19.130;2022-12-29T04:12:38;27.00;;;12.02;;
77123;SDS011;66079;47.646;19.130;2022-12-29T04:15:42;24.58;;;11.85;;
77123;SDS011;66079;47.646;19.130;2022-12-29T04:18:45;22.27;;;12.30;;
77123;SDS011;66079;47.646;19.130;2022-12-29T04:21:48;31.20;;;13.95;;
77123;SDS011;66079;47.646;19.130;2022-12-29T04:24:51;24.23;;;13.15;;
77123;SDS011;66079;47.646;19.130;2022-12-29T04:27:53;24.20;;;13.45;;
77123;SDS011;66079;47.646;19.130;2022-12-29T04:31:32;25.38;;;12.50;;
77123;SDS011;66079;47.646;19.130;2022-12-29T04:34:35;27.10;;;13.93;;
77123;SDS011;66079;47.646;19.130;2022-12-29T04:37:38;24.58;;;13.13;;
77123;SDS011;66079;47.646;19.130;2022-12-29T04:40:42;24.70;;;13.20;;
77123;SDS011;66079;47.646;19.130;2022-12-29T04:43:46;27.23;;;13.45;;
77123;SDS011;66079;47.646;19.130;2022-12-29T04:47:10;24.63;;;12.98;;
77123;SDS011;66079;47.646;19.130;2022-12-29T04:50:20;25.57;;;12.47;;
77123;SDS011;66079;47.646;19.130;2022-12-29T04:53:29;24.77;;;12.50;;
77123;SDS011;66079;47.646;19.130;2022-12-29T04:56:33;26.48;;;13.52;;
77123;SDS011;66079;47.646;19.130;2022-12-29T04:59:36;27.65;;;13.60;;
77123;SDS011;66079;47.646;19.130;2022-12-29T05:02:39;27.75;;;13.27;;
77123;SDS011;66079;47.646;19.130;2022-12-29T05:05:42;26.45;;;13.23;;
77123;SDS011;66079;47.646;19.130;2022-12-29T05:08:45;27.10;;;13.85;;
77123;SDS011;66079;47.646;19.130;2022-12-29T05:11:47;30.77;;;14.27;;
77123;SDS011;66079;47.646;19.130;2022-12-29T05:14:50;28.33;;;13.93;;
77123;SDS011;66079;47.646;19.130;2022-12-29T05:17:53;29.27;;;14.75;;
77123;SDS011;66079;47.646;19.130;2022-12-29T05:20:56;28.08;;;13.93;;
77123;SDS011;66079;47.646;19.130;2022-12-29T05:23:59;29.17;;;13.50;;
77123;SDS011;66079;47.646;19.130;2022-12-29T05:27:02;27.80;;;14.00;;
77123;SDS011;66079;47.646;19.130;2022-12-29T05:30:25;28.58;;;13.73;;
77123;SDS011;66079;47.646;19.130;2022-12-29T05:33:27;26.77;;;13.70;;
77123;SDS011;66079;47.646;19.130;2022-12-29T05:36:30;30.42;;;13.63;;
77123;SDS011;66079;47.646;19.130;2022-12-29T05:39:40;26.77;;;13.63;;
77123;SDS011;66079;47.646;19.130;2022-12-29T05:42:43;29.27;;;13.93;;
77123;SDS011;66079;47.646;19.130;2022-12-29T05:46:11;24.33;;;12.25;;
77123;SDS011;66079;47.646;19.130;2022-12-29T05:49:40;31.80;;;14.50;;
77123;SDS011;66079;47.646;19.130;2022-12-29T05:52:52;31.58;;;14.32;;
77123;SDS011;66079;47.646;19.130;2022-12-29T05:55:55;31.80;;;13.93;;
77123;SDS011;66079;47.646;19.130;2022-12-29T05:58:57;28.00;;;14.38;;
77123;SDS011;66079;47.646;19.130;2022-12-29T06:02:00;28.13;;;14.30;;
77123;SDS011;66079;47.646;19.130;2022-12-29T06:05:03;31.70;;;13.98;;
77123;SDS011;66079;47.646;19.130;2022-12-29T06:08:06;27.92;;;13.52;;
77123;SDS011;66079;47.646;19.130;2022-12-29T06:11:09;31.23;;;15.10;;
77123;SDS011;66079;47.646;19.130;2022-12-29T06:14:13;33.30;;;16.00;;
77123;SDS011;66079;47.646;19.130;2022-12-29T06:17:16;33.30;;;16.03;;
77123;SDS011;66079;47.646;19.130;2022-12-29T06:20:19;38.00;;;17.02;;
77123;SDS011;66079;47.646;19.130;2022-12-29T06:23:22;33.08;;;15.82;;
77123;SDS011;66079;47.646;19.130;2022-12-29T06:26:24;38.40;;;16.57;;
77123;SDS011;66079;47.646;19.130;2022-12-29T06:29:27;32.75;;;15.63;;
77123;SDS011;66079;47.646;19.130;2022-12-29T06:32:32;30.30;;;14.30;;
77123;SDS011;66079;47.646;19.130;2022-12-29T06:35:38;31.48;;;14.68;;
77123;SDS011;66079;47.646;19.130;2022-12-29T06:38:40;30.92;;;14.63;;
77123;SDS011;66079;47.646;19.130;2022-12-29T06:41:43;37.25;;;16.15;;
77123;SDS011;66079;47.646;19.130;2022-12-29T06:45:14;34.88;;;15.90;;
77123;SDS011;66079;47.646;19.130;2022-12-29T06:48:18;34.50;;;16.03;;
77123;SDS011;66079;47.646;19.130;2022-12-29T06:51:20;33.78;;;15.88;;
77123;SDS011;66079;47.646;19.130;2022-12-29T06:54:23;40.38;;;16.73;;
77123;SDS011;66079;47.646;19.130;2022-12-29T06:57:25;37.17;;;17.63;;
77123;SDS011;66079;47.646;19.130;2022-12-29T07:00:28;36.45;;;16.80;;
77123;SDS011;66079;47.646;19.130;2022-12-29T07:03:31;40.47;;;17.92;;
77123;SDS011;66079;47.646;19.130;2022-12-29T07:06:34;40.55;;;18.60;;
77123;SDS011;66079;47.646;19.130;2022-12-29T07:09:36;39.65;;;19.40;;
77123;SDS011;66079;47.646;19.130;2022-12-29T07:12:39;42.08;;;19.65;;
77123;SDS011;66079;47.646;19.130;2022-12-29T07:15:41;39.10;;;18.77;;
77123;SDS011;66079;47.646;19.130;2022-12-29T07:18:44;40.43;;;18.50;;
77123;SDS011;66079;47.646;19.130;2022-12-29T07:21:46;39.03;;;18.50;;
77123;SDS011;66079;47.646;19.130;2022-12-29T07:24:49;39.88;;;18.30;;
77123;SDS011;66079;47.646;19.130;2022-12-29T07:27:53;37.83;;;18.73;;
77123;SDS011;66079;47.646;19.130;2022-12-29T07:30:56;35.72;;;17.50;;
77123;SDS011;66079;47.646;19.130;2022-12-29T07:33:58;37.83;;;18.63;;
77123;SDS011;66079;47.646;19.130;2022-12-29T07:37:01;40.50;;;18.42;;
77123;SDS011;66079;47.646;19.130;2022-12-29T07:40:04;40.75;;;21.15;;
77123;SDS011;66079;47.646;19.130;2022-12-29T07:43:07;43.78;;;21.83;;
77123;SDS011;66079;47.646;19.130;2022-12-29T07:46:16;46.78;;;22.05;;
77123;SDS011;66079;47.646;19.130;2022-12-29T07:49:38;45.83;;;19.93;;
77123;SDS011;66079;47.646;19.130;2022-12-29T07:52:41;41.00;;;20.25;;
77123;SDS011;66079;47.646;19.130;2022-12-29T07:55:45;41.53;;;19.40;;
77123;SDS011;66079;47.646;19.130;2022-12-29T07:58:47;36.30;;;18.50;;
77123;SDS011;66079;47.646;19.130;2022-12-29T08:01:50;35.05;;;17.80;;
77123;SDS011;66079;47.646;19.130;2022-12-29T08:04:53;39.25;;;18.40;;
77123;SDS011;66079;47.646;19.130;2022-12-29T08:07:55;42.20;;;21.17;;
77123;SDS011;66079;47.646;19.130;2022-12-29T08:10:59;42.37;;;21.57;;
77123;SDS011;66079;47.646;19.130;2022-12-29T08:14:01;42.17;;;21.35;;
77123;SDS011;66079;47.646;19.130;2022-12-29T08:17:04;45.22;;;22.40;;
77123;SDS011;66079;47.646;19.130;2022-12-29T08:20:07;41.25;;;21.25;;
77123;SDS011;66079;47.646;19.130;2022-12-29T08:23:10;43.00;;;21.30;;
77123;SDS011;66079;47.646;19.130;2022-12-29T08:26:12;38.08;;;19.88;;
77123;SDS011;66079;47.646;19.130;2022-12-29T08:29:15;36.42;;;20.25;;
77123;SDS011;66079;47.646;19.130;2022-12-29T08:32:17;39.47;;;21.15;;
77123;SDS011;66079;47.646;19.130;2022-12-29T08:35:20;41.10;;;21.13;;
77123;SDS011;66079;47.646;19.130;2022-12-29T08:38:23;38.10;;;20.35;;
77123;SDS011;66079;47.646;19.130;2022-12-29T08:41:25;39.97;;;20.58;;
77123;SDS011;66079;47.646;19.130;2022-12-29T08:44:28;37.23;;;20.07;;
77123;SDS011;66079;47.646;19.130;2022-12-29T08:47:30;37.97;;;19.83;;
77123;SDS011;66079;47.646;19.130;2022-12-29T08:50:33;34.53;;;19.38;;
77123;SDS011;66079;47.646;19.130;2022-12-29T08:53:36;36.20;;;19.33;;
77123;SDS011;66079;47.646;19.130;2022-12-29T08:56:38;38.30;;;18.70;;
77123;SDS011;66079;47.646;19.130;2022-12-29T08:59:41;33.15;;;18.02;;
77123;SDS011;66079;47.646;19.130;2022-12-29T09:02:45;35.00;;;17.92;;
77123;SDS011;66079;47.646;19.130;2022-12-29T09:05:52;35.00;;;18.27;;
77123;SDS011;66079;47.646;19.130;2022-12-29T09:08:55;39.97;;;20.37;;
77123;SDS011;66079;47.646;19.130;2022-12-29T09:11:58;37.78;;;20.33;;
77123;SDS011;66079;47.646;19.130;2022-12-29T09:15:01;38.80;;;20.73;;
77123;SDS011;66079;47.646;19.130;2022-12-29T09:18:04;39.80;;;20.65;;
77123;SDS011;66079;47.646;19.130;2022-12-29T09:21:07;36.37;;;19.23;;
77123;SDS011;66079;47.646;19.130;2022-12-29T09:24:11;33.67;;;17.92;;
77123;SDS011;66079;47.646;19.130;2022-12-29T09:27:14;33.92;;;18.17;;
77123;SDS011;66079;47.646;19.130;2022-12-29T09:30:16;37.65;;;18.15;;
77123;SDS011;66079;47.646;19.130;2022-12-29T09:33:19;34.70;;;17.87;;
77123;SDS011;66079;47.646;19.130;2022-12-29T09:36:22;28.85;;;16.40;;
77123;SDS011;66079;47.646;19.130;2022-12-29T09:39:25;32.28;;;17.42;;
77123;SDS011;66079;47.646;19.130;2022-12-29T09:52:49;29.10;;;16.55;;
77123;SDS011;66079;47.646;19.130;2022-12-29T09:55:55;29.63;;;16.05;;
77123;SDS011;66079;47.646;19.130;2022-12-29T09:59:02;25.90;;;16.80;;
77123;SDS011;66079;47.646;19.130;2022-12-29T10:05:39;28.48;;;16.63;;
77123;SDS011;66079;47.646;19.130;2022-12-29T10:12:41;25.20;;;15.68;;
77123;SDS011;66079;47.646;19.130;2022-12-29T10:15:57;24.83;;;15.53;;
77123;SDS011;66079;47.646;19.130;2022-12-29T10:25:58;26.70;;;15.18;;
77123;SDS011;66079;47.646;19.130;2022-12-29T10:29:04;26.10;;;14.85;;
77123;SDS011;66079;47.646;19.130;2022-12-29T10:35:47;23.83;;;15.27;;
77123;SDS011;66079;47.646;19.130;2022-12-29T10:42:27;23.73;;;15.77;;
77123;SDS011;66079;47.646;19.130;2022-12-29T10:45:35;25.13;;;16.08;;
77123;SDS011;66079;47.646;19.130;2022-12-29T10:48:38;23.77;;;15.23;;
77123;SDS011;66079;47.646;19.130;2022-12-29T10:51:41;27.02;;;15.90;;
77123;SDS011;66079;47.646;19.130;2022-12-29T10:54:49;23.50;;;15.77;;
77123;SDS011;66079;47.646;19.130;2022-12-29T10:57:59;24.13;;;16.10;;
77123;SDS011;66079;47.646;19.130;2022-12-29T11:01:07;26.13;;;15.73;;
77123;SDS011;66079;47.646;19.130;2022-12-29T11:04:29;22.40;;;15.50;;
77123;SDS011;66079;47.646;19.130;2022-12-29T11:07:40;26.55;;;16.08;;
77123;SDS011;66079;47.646;19.130;2022-12-29T11:10:43;23.42;;;16.85;;
77123;SDS011;66079;47.646;19.130;2022-12-29T11:13:48;23.98;;;16.20;;
77123;SDS011;66079;47.646;19.130;2022-12-29T11:16:56;22.02;;;16.23;;
77123;SDS011;66079;47.646;19.130;2022-12-29T11:20:08;21.10;;;16.00;;
77123;SDS011;66079;47.646;19.130;2022-12-29T11:23:41;23.23;;;16.65;;
77123;SDS011;66079;47.646;19.130;2022-12-29T11:26:44;22.92;;;15.65;;
77123;SDS011;66079;47.646;19.130;2022-12-29T11:29:47;23.88;;;16.85;;
77123;SDS011;66079;47.646;19.130;2022-12-29T11:32:52;25.17;;;16.20;;
77123;SDS011;66079;47.646;19.130;2022-12-29T11:36:01;23.70;;;16.60;;
77123;SDS011;66079;47.646;19.130;2022-12-29T11:39:16;22.88;;;16.40;;
77123;SDS011;66079;47.646;19.130;2022-12-29T11:42:42;21.17;;;16.13;;
77123;SDS011;66079;47.646;19.130;2022-12-29T11:45:49;21.30;;;15.77;;
77123;SDS011;66079;47.646;19.130;2022-12-29T11:48:54;24.55;;;16.67;;
77123;SDS011;66079;47.646;19.130;2022-12-29T11:52:00;24.50;;;16.47;;
77123;SDS011;66079;47.646;19.130;2022-12-29T11:55:04;21.70;;;16.45;;
77123;SDS011;66079;47.646;19.130;2022-12-29T11:58:11;24.67;;;16.92;;
77123;SDS011;66079;47.646;19.130;2022-12-29T12:01:31;24.15;;;16.20;;
77123;SDS011;66079;47.646;19.130;2022-12-29T12:04:39;20.90;;;16.70;;
77123;SDS011;66079;47.646;19.130;2022-12-29T12:07:43;25.00;;;17.00;;
77123;SDS011;66079;47.646;19.130;2022-12-29T12:17:54;23.27;;;16.77;;
77123;SDS011;66079;47.646;19.130;2022-12-29T12:24:48;22.10;;;17.23;;
77123;SDS011;66079;47.646;19.130;2022-12-29T12:27:57;23.38;;;15.80;;
77123;SDS011;66079;47.646;19.130;2022-12-29T12:31:17;24.52;;;16.80;;
77123;SDS011;66079;47.646;19.130;2022-12-29T12:37:41;25.67;;;17.83;;
77123;SDS011;66079;47.646;19.130;2022-12-29T13:00:46;24.90;;;18.40;;
77123;SDS011;66079;47.646;19.130;2022-12-29T13:04:06;25.63;;;19.15;;
77123;SDS011;66079;47.646;19.130;2022-12-29T13:07:37;25.05;;;18.02;;
77123;SDS011;66079;47.646;19.130;2022-12-29T13:17:45;26.77;;;17.70;;
77123;SDS011;66079;47.646;19.130;2022-12-29T13:20:54;27.52;;;19.45;;
77123;SDS011;66079;47.646;19.130;2022-12-29T13:37:45;29.30;;;18.38;;
77123;SDS011;66079;47.646;19.130;2022-12-29T13:40:55;27.20;;;18.17;;
77123;SDS011;66079;47.646;19.130;2022-12-29T13:44:02;26.20;;;17.33;;
77123;SDS011;66079;47.646;19.130;2022-12-29T13:50:24;24.63;;;16.80;;
77123;SDS011;66079;47.646;19.130;2022-12-29T14:00:35;25.65;;;17.35;;
77123;SDS011;66079;47.646;19.130;2022-12-29T14:03:52;24.37;;;17.63;;
77123;SDS011;66079;47.646;19.130;2022-12-29T14:07:03;26.63;;;17.50;;
77123;SDS011;66079;47.646;19.130;2022-12-29T14:13:38;28.70;;;18.88;;
77123;SDS011;66079;47.646;19.130;2022-12-29T14:16:42;26.65;;;17.80;;
77123;SDS011;66079;47.646;19.130;2022-12-29T14:19:45;30.17;;;19.10;;
77123;SDS011;66079;47.646;19.130;2022-12-29T14:23:00;30.85;;;18.98;;
77123;SDS011;66079;47.646;19.130;2022-12-29T14:32:40;30.77;;;18.52;;
77123;SDS011;66079;47.646;19.130;2022-12-29T14:36:23;33.57;;;17.80;;
77123;SDS011;66079;47.646;19.130;2022-12-29T14:39:37;31.17;;;18.58;;
77123;SDS011;66079;47.646;19.130;2022-12-29T14:42:41;31.83;;;19.38;;
77123;SDS011;66079;47.646;19.130;2022-12-29T14:45:48;34.03;;;19.45;;
77123;SDS011;66079;47.646;19.130;2022-12-29T14:48:56;39.38;;;20.50;;
77123;SDS011;66079;47.646;19.130;2022-12-29T14:52:04;37.67;;;20.60;;
77123;SDS011;66079;47.646;19.130;2022-12-29T14:58:20;34.97;;;19.60;;
77123;SDS011;66079;47.646;19.130;2022-12-29T15:04:35;36.50;;;19.60;;
77123;SDS011;66079;47.646;19.130;2022-12-29T15:07:38;38.97;;;21.42;;
77123;SDS011;66079;47.646;19.130;2022-12-29T15:10:42;36.55;;;20.20;;
77123;SDS011;66079;47.646;19.130;2022-12-29T15:13:50;45.35;;;20.60;;
77123;SDS011;66079;47.646;19.130;2022-12-29T15:16:52;38.07;;;20.40;;
77123;SDS011;66079;47.646;19.130;2022-12-29T15:19:56;37.70;;;20.37;;
77123;SDS011;66079;47.646;19.130;2022-12-29T15:23:03;39.00;;;20.15;;
77123;SDS011;66079;47.646;19.130;2022-12-29T15:26:17;41.75;;;21.38;;
77123;SDS011;66079;47.646;19.130;2022-12-29T15:29:40;41.93;;;21.77;;
77123;SDS011;66079;47.646;19.130;2022-12-29T15:32:44;43.40;;;22.07;;
77123;SDS011;66079;47.646;19.130;2022-12-29T15:35:51;42.22;;;22.00;;
77123;SDS011;66079;47.646;19.130;2022-12-29T15:38:55;39.85;;;20.70;;
77123;SDS011;66079;47.646;19.130;2022-12-29T15:45:12;46.50;;;22.97;;
77123;SDS011;66079;47.646;19.130;2022-12-29T15:48:18;48.85;;;22.95;;
77123;SDS011;66079;47.646;19.130;2022-12-29T15:51:30;45.92;;;23.95;;
77123;SDS011;66079;47.646;19.130;2022-12-29T15:54:39;42.30;;;22.23;;
77123;SDS011;66079;47.646;19.130;2022-12-29T15:57:46;44.30;;;21.58;;
77123;SDS011;66079;47.646;19.130;2022-12-29T16:00:50;41.35;;;21.45;;
77123;SDS011;66079;47.646;19.130;2022-12-29T16:04:04;42.80;;;22.52;;
77123;SDS011;66079;47.646;19.130;2022-12-29T16:10:39;48.47;;;23.23;;
77123;SDS011;66079;47.646;19.130;2022-12-29T16:13:44;48.72;;;23.27;;
77123;SDS011;66079;47.646;19.130;2022-12-29T16:16:47;45.90;;;24.25;;
77123;SDS011;66079;47.646;19.130;2022-12-29T16:23:00;50.75;;;25.45;;
77123;SDS011;66079;47.646;19.130;2022-12-29T16:26:03;47.47;;;24.08;;
77123;SDS011;66079;47.646;19.130;2022-12-29T16:29:11;47.00;;;24.10;;
77123;SDS011;66079;47.646;19.130;2022-12-29T16:32:25;44.65;;;22.38;;
77123;SDS011;66079;47.646;19.130;2022-12-29T16:35:45;48.60;;;22.73;;
77123;SDS011;66079;47.646;19.130;2022-12-29T16:38:48;48.65;;;25.67;;
77123;SDS011;66079;47.646;19.130;2022-12-29T16:41:52;59.30;;;30.90;;
77123;SDS011;66079;47.646;19.130;2022-12-29T16:44:55;56.30;;;29.02;;
77123;SDS011;66079;47.646;19.130;2022-12-29T16:51:34;55.65;;;28.70;;
77123;SDS011;66079;47.646;19.130;2022-12-29T16:54:38;56.00;;;29.20;;
77123;SDS011;66079;47.646;19.130;2022-12-29T16:57:42;56.30;;;28.40;;
77123;SDS011;66079;47.646;19.130;2022-12-29T17:00:46;58.90;;;29.73;;
77123;SDS011;66079;47.646;19.130;2022-12-29T17:03:50;63.80;;;31.90;;
77123;SDS011;66079;47.646;19.130;2022-12-29T17:06:55;73.53;;;33.27;;
77123;SDS011;66079;47.646;19.130;2022-12-29T17:09:58;75.13;;;35.78;;
77123;SDS011;66079;47.646;19.130;2022-12-29T17:13:01;72.57;;;35.38;;
77123;SDS011;66079;47.646;19.130;2022-12-29T17:16:07;73.45;;;34.65;;
77123;SDS011;66079;47.646;19.130;2022-12-29T17:19:20;76.50;;;34.20;;
77123;SDS011;66079;47.646;19.130;2022-12-29T17:22:28;71.30;;;32.92;;
77123;SDS011;66079;47.646;19.130;2022-12-29T17:25:33;65.97;;;32.38;;
77123;SDS011;66079;47.646;19.130;2022-12-29T17:28:38;63.30;;;31.43;;
77123;SDS011;66079;47.646;19.130;2022-12-29T17:31:41;58.33;;;30.23;;
77123;SDS011;66079;47.646;19.130;2022-12-29T17:34:43;65.47;;;29.45;;
77123;SDS011;66079;47.646;19.130;2022-12-29T17:37:46;58.08;;;28.05;;
77123;SDS011;66079;47.646;19.130;2022-12-29T17:40:50;60.40;;;29.20;;
77123;SDS011;66079;47.646;19.130;2022-12-29T17:43:53;61.58;;;29.98;;
77123;SDS011;66079;47.646;19.130;2022-12-29T17:46:55;53.72;;;27.88;;
77123;SDS011;66079;47.646;19.130;2022-12-29T17:49:58;61.80;;;28.30;;
77123;SDS011;66079;47.646;19.130;2022-12-29T17:53:05;58.60;;;29.43;;
77123;SDS011;66079;47.646;19.130;2022-12-29T17:56:13;63.53;;;28.83;;
77123;SDS011;66079;47.646;19.130;2022-12-29T17:59:16;54.80;;;28.58;;
77123;SDS011;66079;47.646;19.130;2022-12-29T18:02:24;56.58;;;28.77;;
77123;SDS011;66079;47.646;19.130;2022-12-29T18:05:32;60.97;;;29.03;;
77123;SDS011;66079;47.646;19.130;2022-12-29T18:08:34;59.33;;;30.80;;
77123;SDS011;66079;47.646;19.130;2022-12-29T18:11:38;54.88;;;27.58;;
77123;SDS011;66079;47.646;19.130;2022-12-29T18:14:42;58.37;;;29.70;;
77123;SDS011;66079;47.646;19.130;2022-12-29T18:17:45;62.70;;;31.88;;
77123;SDS011;66079;47.646;19.130;2022-12-29T18:20:48;62.75;;;32.42;;
77123;SDS011;66079;47.646;19.130;2022-12-29T18:23:53;64.20;;;31.92;;
77123;SDS011;66079;47.646;19.130;2022-12-29T18:26:56;60.63;;;31.27;;
77123;SDS011;66079;47.646;19.130;2022-12-29T18:29:59;62.60;;;31.42;;
77123;SDS011;66079;47.646;19.130;2022-12-29T18:33:02;54.92;;;30.20;;
77123;SDS011;66079;47.646;19.130;2022-12-29T18:36:05;55.88;;;29.58;;
77123;SDS011;66079;47.646;19.130;2022-12-29T18:39:08;56.72;;;30.33;;
77123;SDS011;66079;47.646;19.130;2022-12-29T18:42:14;54.20;;;28.48;;
77123;SDS011;66079;47.646;19.130;2022-12-29T18:45:20;55.22;;;28.02;;
77123;SDS011;66079;47.646;19.130;2022-12-29T18:48:23;49.93;;;25.87;;
77123;SDS011;66079;47.646;19.130;2022-12-29T18:51:26;57.22;;;27.40;;
77123;SDS011;66079;47.646;19.130;2022-12-29T18:54:29;48.85;;;25.02;;
77123;SDS011;66079;47.646;19.130;2022-12-29T18:57:33;49.83;;;24.85;;
77123;SDS011;66079;47.646;19.130;2022-12-29T19:00:36;47.23;;;25.43;;
77123;SDS011;66079;47.646;19.130;2022-12-29T19:03:39;49.53;;;25.13;;
77123;SDS011;66079;47.646;19.130;2022-12-29T19:06:42;47.58;;;24.23;;
77123;SDS011;66079;47.646;19.130;2022-12-29T19:09:45;44.30;;;24.10;;
77123;SDS011;66079;47.646;19.130;2022-12-29T19:12:48;48.93;;;24.47;;
77123;SDS011;66079;47.646;19.130;2022-12-29T19:15:51;44.83;;;23.42;;
77123;SDS011;66079;47.646;19.130;2022-12-29T19:18:54;50.80;;;26.55;;
77123;SDS011;66079;47.646;19.130;2022-12-29T19:22:10;58.00;;;27.75;;
77123;SDS011;66079;47.646;19.130;2022-12-29T19:25:12;53.03;;;28.70;;
77123;SDS011;66079;47.646;19.130;2022-12-29T19:28:25;56.20;;;28.17;;
77123;SDS011;66079;47.646;19.130;2022-12-29T19:31:29;53.22;;;25.75;;
77123;SDS011;66079;47.646;19.130;2022-12-29T19:34:32;51.50;;;26.30;;
77123;SDS011;66079;47.646;19.130;2022-12-29T19:37:34;52.67;;;27.27;;
77123;SDS011;66079;47.646;19.130;2022-12-29T19:40:42;54.17;;;27.17;;
77123;SDS011;66079;47.646;19.130;2022-12-29T19:43:47;62.25;;;29.15;;
77123;SDS011;66079;47.646;19.130;2022-12-29T19:46:49;58.65;;;28.25;;
77123;SDS011;66079;47.646;19.130;2022-12-29T19:49:52;62.23;;;28.80;;
77123;SDS011;66079;47.646;19.130;2022-12-29T19:52:55;51.65;;;27.88;;
77123;SDS011;66079;47.646;19.130;2022-12-29T19:56:07;47.63;;;26.27;;
77123;SDS011;66079;47.646;19.130;2022-12-29T19:59:10;54.50;;;27.38;;
77123;SDS011;66079;47.646;19.130;2022-12-29T20:05:46;45.90;;;24.65;;
77123;SDS011;66079;47.646;19.130;2022-12-29T20:08:50;48.95;;;25.88;;
77123;SDS011;66079;47.646;19.130;2022-12-29T20:11:52;57.08;;;28.02;;
77123;SDS011;66079;47.646;19.130;2022-12-29T20:14:55;54.47;;;26.23;;
77123;SDS011;66079;47.646;19.130;2022-12-29T20:17:58;56.88;;;28.67;;
77123;SDS011;66079;47.646;19.130;2022-12-29T20:21:20;58.83;;;29.55;;
77123;SDS011;66079;47.646;19.130;2022-12-29T20:24:24;58.50;;;29.27;;
77123;SDS011;66079;47.646;19.130;2022-12-29T20:27:26;62.53;;;29.73;;
77123;SDS011;66079;47.646;19.130;2022-12-29T20:30:29;62.95;;;29.85;;
77123;SDS011;66079;47.646;19.130;2022-12-29T20:33:32;77.43;;;32.80;;
77123;SDS011;66079;47.646;19.130;2022-12-29T20:36:37;75.32;;;34.70;;
77123;SDS011;66079;47.646;19.130;2022-12-29T20:39:41;75.63;;;35.35;;
77123;SDS011;66079;47.646;19.130;2022-12-29T20:42:44;77.35;;;34.92;;
77123;SDS011;66079;47.646;19.130;2022-12-29T20:45:47;67.43;;;32.77;;
77123;SDS011;66079;47.646;19.130;2022-12-29T20:48:50;66.30;;;32.70;;
77123;SDS011;66079;47.646;19.130;2022-12-29T20:51:52;61.70;;;29.95;;
77123;SDS011;66079;47.646;19.130;2022-12-29T20:55:10;64.63;;;32.40;;
77123;SDS011;66079;47.646;19.130;2022-12-29T20:58:13;68.43;;;32.90;;